createdAt,value
2023-03-07T00:00:22.209Z,97280.06
2023-03-07T00:02:51.859Z,97280.34
2023-03-07T00:05:18.818Z,97280.06
2023-03-07T00:07:45.801Z,97286.41
2023-03-07T00:10:12.638Z,97274.25
2023-03-07T00:12:39.246Z,97282.81
2023-03-07T00:15:06.578Z,97289.84
2023-03-07T00:17:36.220Z,97288.91
2023-03-07T00:20:07.497Z,97288.22
2023-03-07T00:22:35.324Z,97278.63
2023-03-07T00:25:02.183Z,97279.59
2023-03-07T00:27:30.566Z,97281.28
2023-03-07T00:29:58.007Z,97279.69
2023-03-07T00:32:25.029Z,97271.66
2023-03-07T00:34:51.782Z,97271.00
2023-03-07T00:37:18.537Z,97275.06
2023-03-07T00:39:45.191Z,97267.50
2023-03-07T00:42:11.816Z,97267.63
2023-03-07T00:44:38.707Z,97263.16
2023-03-07T00:47:05.692Z,97257.06
2023-03-07T00:49:32.516Z,97257.16
2023-03-07T00:51:59.340Z,97257.00
2023-03-07T00:54:27.632Z,97257.00
2023-03-07T00:56:54.357Z,97251.81
2023-03-07T00:59:21.013Z,97249.75
2023-03-07T01:01:48.438Z,97249.75
2023-03-07T01:04:15.184Z,97259.53
2023-03-07T01:06:41.920Z,97245.66
2023-03-07T01:09:10.663Z,97246.25
2023-03-07T01:11:38.437Z,97239.63
2023-03-07T01:14:07.031Z,97245.47
2023-03-07T01:16:37.231Z,97234.19
2023-03-07T01:19:07.909Z,97234.03
2023-03-07T01:21:37.767Z,97235.69
2023-03-07T01:24:06.046Z,97225.16
2023-03-07T01:26:33.588Z,97227.81
2023-03-07T01:29:03.255Z,97228.00
2023-03-07T01:31:33.293Z,97228.66
2023-03-07T01:34:02.286Z,97219.72
2023-03-07T01:36:33.739Z,97220.00
2023-03-07T01:39:23.075Z,97207.72
2023-03-07T01:42:03.427Z,97210.38
2023-03-07T01:44:30.594Z,97200.41
2023-03-07T01:46:58.635Z,97192.56
2023-03-07T01:49:40.845Z,97191.75
2023-03-07T01:52:09.940Z,97186.81
2023-03-07T01:54:42.604Z,97191.97
2023-03-07T01:57:09.592Z,97188.88
2023-03-07T01:59:44.539Z,97177.25
2023-03-07T02:02:17.110Z,97182.44
2023-03-07T02:05:22.411Z,97179.34
2023-03-07T02:07:50.730Z,97173.81
2023-03-07T02:10:23.457Z,97173.94
2023-03-07T02:12:51.793Z,97169.56
2023-03-07T02:15:18.895Z,97166.72
2023-03-07T02:17:46.321Z,97163.53
2023-03-07T02:20:20.928Z,97158.06
2023-03-07T02:22:49.779Z,97150.28
2023-03-07T02:25:32.321Z,97152.94
2023-03-07T02:28:01.283Z,97139.81
2023-03-07T02:30:27.945Z,97150.25
2023-03-07T02:32:54.975Z,97143.31
2023-03-07T02:35:23.921Z,97150.34
2023-03-07T02:37:57.332Z,97143.44
2023-03-07T02:40:29.422Z,97143.19
2023-03-07T02:43:00.542Z,97132.47
2023-03-07T02:45:27.421Z,97134.25
2023-03-07T02:47:54.224Z,97136.97
2023-03-07T02:50:20.987Z,97133.50
2023-03-07T02:52:51.531Z,97137.69
2023-03-07T02:55:18.284Z,97133.28
2023-03-07T02:57:50.269Z,97137.53
2023-03-07T03:00:17.709Z,97128.16
2023-03-07T03:02:44.803Z,97125.66
2023-03-07T03:05:11.989Z,97131.66
2023-03-07T03:07:38.877Z,97128.06
2023-03-07T03:10:06.343Z,97117.66
2023-03-07T03:12:33.588Z,97124.81
2023-03-07T03:15:00.620Z,97125.41
2023-03-07T03:17:27.503Z,97118.56
2023-03-07T03:19:54.113Z,97115.06
2023-03-07T03:22:20.750Z,97116.69
2023-03-07T03:24:49.684Z,97108.91
2023-03-07T03:27:17.694Z,97111.34
2023-03-07T03:29:47.060Z,97109.28
2023-03-07T03:32:14.397Z,97112.06
2023-03-07T03:34:43.289Z,97106.63
2023-03-07T03:37:10.104Z,97106.75
2023-03-07T03:39:37.584Z,97113.91
2023-03-07T03:42:06.108Z,97108.59
2023-03-07T03:44:32.951Z,97104.94
2023-03-07T03:46:59.898Z,97105.22
2023-03-07T03:49:27.335Z,97100.59
2023-03-07T03:51:55.089Z,97097.94
2023-03-07T03:54:21.850Z,97096.28
2023-03-07T03:56:48.633Z,97087.31
2023-03-07T03:59:15.302Z,97092.47
2023-03-07T04:01:42.598Z,97086.56
2023-03-07T04:04:09.692Z,97094.50
2023-03-07T04:06:37.625Z,97082.13
2023-03-07T04:09:05.393Z,97082.06
2023-03-07T04:11:32.825Z,97080.44
2023-03-07T04:13:59.584Z,97072.38
2023-03-07T04:16:26.359Z,97068.13
2023-03-07T04:18:53.579Z,97065.59
2023-03-07T04:21:21.620Z,97062.22
2023-03-07T04:23:50.395Z,97060.47
2023-03-07T04:26:17.493Z,97060.34
2023-03-07T04:28:49.052Z,97055.50
2023-03-07T04:31:25.135Z,97053.69
2023-03-07T04:33:54.047Z,97053.69
2023-03-07T04:36:22.247Z,97055.19
2023-03-07T04:38:50.560Z,97058.63
2023-03-07T04:41:21.057Z,97056.06
2023-03-07T04:43:50.770Z,97055.81
2023-03-07T04:46:19.079Z,97051.41
2023-03-07T04:48:46.851Z,97054.94
2023-03-07T04:51:13.805Z,97048.16
2023-03-07T04:53:40.882Z,97055.06
2023-03-07T04:56:09.400Z,97053.25
2023-03-07T04:58:37.519Z,97046.81
2023-03-07T05:01:05.285Z,97043.78
2023-03-07T05:03:33.217Z,97045.16
2023-03-07T05:06:10.373Z,97040.16
2023-03-07T05:08:37.553Z,97027.88
2023-03-07T05:11:04.590Z,97028.88
2023-03-07T05:13:32.056Z,97030.69
2023-03-07T05:16:00.105Z,97029.13
2023-03-07T05:18:28.544Z,97030.19
2023-03-07T05:20:57.250Z,97029.28
2023-03-07T05:23:24.823Z,97026.75
2023-03-07T05:25:52.968Z,97018.91
2023-03-07T05:28:19.830Z,97024.25
2023-03-07T05:30:47.305Z,97018.84
2023-03-07T05:33:15.092Z,97022.94
2023-03-07T05:35:42.630Z,97020.84
2023-03-07T05:38:11.437Z,97023.47
2023-03-07T05:40:38.296Z,97020.50
2023-03-07T05:43:06.170Z,97023.88
2023-03-07T05:45:33.932Z,97021.47
2023-03-07T05:48:01.834Z,97022.06
2023-03-07T05:50:30.583Z,97022.06
2023-03-07T05:52:57.755Z,97024.06
2023-03-07T05:55:27.421Z,97029.56
2023-03-07T05:57:54.214Z,97026.34
2023-03-07T06:00:21.671Z,97027.94
2023-03-07T06:02:54.467Z,97010.06
2023-03-07T06:05:21.262Z,97008.31
2023-03-07T06:07:49.354Z,97011.00
2023-03-07T06:10:16.483Z,97017.16
2023-03-07T06:12:43.608Z,97016.09
2023-03-07T06:15:10.585Z,97012.81
2023-03-07T06:17:38.279Z,97013.75
2023-03-07T06:20:07.389Z,97013.50
2023-03-07T06:22:34.862Z,97015.81
2023-03-07T06:25:02.776Z,97014.44
2023-03-07T06:27:33.519Z,97017.84
2023-03-07T06:30:00.434Z,97018.38
2023-03-07T06:32:31.315Z,97014.44
2023-03-07T06:34:58.841Z,97011.63
2023-03-07T06:37:26.707Z,97010.53
2023-03-07T06:39:56.648Z,97013.94
2023-03-07T06:42:23.543Z,97016.84
2023-03-07T06:44:50.589Z,97008.63
2023-03-07T06:47:17.460Z,97011.47
2023-03-07T06:49:44.189Z,97013.88
2023-03-07T06:52:11.007Z,97013.03
2023-03-07T06:54:37.775Z,97012.66
2023-03-07T06:57:06.308Z,97011.38
2023-03-07T06:59:32.989Z,97019.31
2023-03-07T07:02:03.797Z,97022.53
2023-03-07T07:04:30.870Z,97018.41
2023-03-07T07:06:57.590Z,97007.69
2023-03-07T07:09:24.754Z,97011.16
2023-03-07T07:11:51.633Z,97001.16
2023-03-07T07:14:19.013Z,97007.16
2023-03-07T07:16:46.060Z,97011.44
2023-03-07T07:19:12.789Z,97005.88
2023-03-07T07:21:39.446Z,97005.75
2023-03-07T07:24:06.382Z,97018.03
2023-03-07T07:26:33.168Z,97014.88
2023-03-07T07:29:00.282Z,97015.69
2023-03-07T07:31:27.297Z,97005.94
2023-03-07T07:33:54.142Z,97007.75
2023-03-07T07:36:23.685Z,97003.63
2023-03-07T07:38:51.617Z,97008.50
2023-03-07T07:41:18.385Z,97003.38
2023-03-07T07:43:48.231Z,96997.16
2023-03-07T07:46:24.484Z,96990.75
2023-03-07T07:48:51.340Z,97002.22
2023-03-07T07:51:18.632Z,96997.06
2023-03-07T07:53:46.796Z,96993.84
2023-03-07T07:56:14.032Z,96982.47
2023-03-07T07:58:40.811Z,96984.78
2023-03-07T08:01:22.243Z,96983.03
2023-03-07T08:03:49.232Z,96988.91
2023-03-07T08:06:20.591Z,96985.06
2023-03-07T08:08:48.115Z,96986.63
2023-03-07T08:11:16.042Z,96991.94
2023-03-07T08:13:42.842Z,96991.47
2023-03-07T08:16:15.272Z,96995.84
2023-03-07T08:18:42.554Z,96988.25
2023-03-07T08:21:09.244Z,96990.72
2023-03-07T08:23:36.853Z,96998.75
2023-03-07T08:26:06.276Z,96986.72
2023-03-07T08:28:33.457Z,96989.50
2023-03-07T08:31:09.730Z,96987.03
2023-03-07T08:33:36.504Z,96979.75
2023-03-07T08:36:03.581Z,96986.16
2023-03-07T08:38:30.501Z,96979.16
2023-03-07T08:41:02.083Z,96985.88
2023-03-07T08:43:29.413Z,96977.84
2023-03-07T08:45:56.585Z,96978.13
2023-03-07T08:48:25.846Z,96979.88
2023-03-07T08:50:55.013Z,96971.56
2023-03-07T08:53:22.576Z,96974.63
2023-03-07T08:55:49.832Z,96975.47
2023-03-07T08:58:16.595Z,96980.81
2023-03-07T09:00:43.295Z,96968.22
2023-03-07T09:03:10.121Z,96974.56
2023-03-07T09:05:40.703Z,96963.53
2023-03-07T09:08:08.175Z,96967.66
2023-03-07T09:10:35.372Z,96976.28
2023-03-07T09:13:02.114Z,96974.19
2023-03-07T09:15:28.831Z,96974.31
2023-03-07T09:17:55.576Z,96974.81
2023-03-07T09:20:22.317Z,96965.41
2023-03-07T09:22:51.529Z,96960.06
2023-03-07T09:25:18.587Z,96948.56
2023-03-07T09:27:45.653Z,96962.38
2023-03-07T09:30:13.966Z,96957.41
2023-03-07T09:32:40.744Z,96948.88
2023-03-07T09:35:07.901Z,96949.81
2023-03-07T09:37:34.934Z,96929.91
2023-03-07T09:40:02.204Z,96931.44
2023-03-07T09:42:46.383Z,96911.19
2023-03-07T09:45:31.461Z,96914.22
2023-03-07T09:48:42.446Z,96922.47
2023-03-07T09:51:21.548Z,96921.84
2023-03-07T09:54:04.779Z,96926.94
2023-03-07T09:56:35.862Z,96924.84
2023-03-07T09:59:24.056Z,96936.13
2023-03-07T10:02:17.082Z,96929.41
2023-03-07T10:05:04.309Z,96934.84
2023-03-07T10:07:31.377Z,96945.97
2023-03-07T10:10:01.561Z,96940.09
2023-03-07T10:13:03.792Z,96936.28
2023-03-07T10:15:36.959Z,96932.47
2023-03-07T10:18:25.410Z,96938.22
2023-03-07T10:21:02.951Z,96921.34
2023-03-07T10:24:00.370Z,96920.28
2023-03-07T10:26:34.029Z,96918.91
2023-03-07T10:29:11.896Z,96899.16
2023-03-07T10:31:41.497Z,96902.97
2023-03-07T10:34:26.723Z,96898.34
2023-03-07T10:37:08.689Z,96901.91
2023-03-07T10:39:49.884Z,96893.50
2023-03-07T10:42:19.184Z,96922.50
2023-03-07T10:44:48.835Z,96910.44
2023-03-07T10:47:21.396Z,96895.94
2023-03-07T10:49:51.276Z,96896.13
2023-03-07T10:52:41.386Z,96899.13
2023-03-07T10:55:34.873Z,96887.91
2023-03-07T10:58:17.110Z,96897.78
2023-03-07T11:00:44.575Z,96895.03
2023-03-07T11:03:27.822Z,96892.72
2023-03-07T11:05:54.585Z,96890.63
2023-03-07T11:08:27.348Z,96881.19
2023-03-07T11:10:54.304Z,96881.63
2023-03-07T11:13:22.577Z,96879.19
2023-03-07T11:15:49.663Z,96878.75
2023-03-07T11:18:30.203Z,96886.50
2023-03-07T11:20:58.338Z,96874.47
2023-03-07T11:23:27.456Z,96876.13
2023-03-07T11:25:56.321Z,96876.56
2023-03-07T11:28:27.917Z,96874.16
2023-03-07T11:31:10.736Z,96866.50
2023-03-07T11:33:58.664Z,96865.53
2023-03-07T11:36:49.392Z,96863.97
2023-03-07T11:39:32.431Z,96853.41
2023-03-07T11:42:23.010Z,96856.47
2023-03-07T11:44:54.599Z,96841.19
2023-03-07T11:47:50.770Z,96852.63
2023-03-07T11:50:28.955Z,96848.09
2023-03-07T11:53:17.651Z,96843.69
2023-03-07T11:56:09.143Z,96846.47
2023-03-07T11:58:38.524Z,96844.09
2023-03-07T12:01:48.938Z,96841.41
2023-03-07T12:04:33.995Z,96842.22
2023-03-07T12:07:22.244Z,96849.97
2023-03-07T12:10:04.756Z,96839.69
2023-03-07T12:12:56.661Z,96842.19
2023-03-07T12:15:49.482Z,96840.06
2023-03-07T12:18:25.428Z,96838.91
2023-03-07T12:21:10.309Z,96852.53
2023-03-07T12:23:48.419Z,96849.59
2023-03-07T12:26:15.091Z,96838.97
2023-03-07T12:28:52.494Z,96855.44
2023-03-07T12:31:27.827Z,96854.66
2023-03-07T12:33:58.700Z,96848.75
2023-03-07T12:36:40.940Z,96855.72
2023-03-07T12:39:07.991Z,96854.28
2023-03-07T12:42:02.872Z,96859.84
2023-03-07T12:44:40.301Z,96855.97
2023-03-07T12:47:17.548Z,96849.72
2023-03-07T12:49:57.736Z,96845.41
2023-03-07T12:52:31.339Z,96848.75
2023-03-07T12:55:06.367Z,96847.16
2023-03-07T12:57:38.928Z,96851.03
2023-03-07T13:00:08.783Z,96855.38
2023-03-07T13:02:43.568Z,96842.25
2023-03-07T13:05:20.449Z,96847.81
2023-03-07T13:07:48.290Z,96846.78
2023-03-07T13:10:20.729Z,96853.00
2023-03-07T13:12:48.684Z,96845.72
2023-03-07T13:15:18.404Z,96841.34
2023-03-07T13:17:45.053Z,96837.44
2023-03-07T13:20:14.668Z,96841.19
2023-03-07T13:22:41.250Z,96844.22
2023-03-07T13:25:24.855Z,96847.56
2023-03-07T13:27:54.399Z,96835.50
2023-03-07T13:30:29.790Z,96832.97
2023-03-07T13:33:00.036Z,96840.91
2023-03-07T13:35:32.560Z,96844.00
2023-03-07T13:38:23.825Z,96838.63
2023-03-07T13:40:54.344Z,96838.94
2023-03-07T13:43:25.606Z,96843.25
2023-03-07T13:46:26.145Z,96838.03
2023-03-07T13:48:53.620Z,96837.31
2023-03-07T13:51:21.278Z,96837.47
2023-03-07T13:53:54.688Z,96830.19
2023-03-07T13:56:29.496Z,96814.16
2023-03-07T13:59:04.048Z,96815.16
2023-03-07T14:01:40.724Z,96814.69
2023-03-07T14:04:13.496Z,96806.84
2023-03-07T14:06:45.373Z,96817.16
2023-03-07T14:09:15.656Z,96815.22
2023-03-07T14:12:08.106Z,96817.09
2023-03-07T14:15:00.400Z,96805.16
2023-03-07T14:17:46.203Z,96815.78
2023-03-07T14:20:36.080Z,96812.13
2023-03-07T14:23:14.757Z,96812.34
2023-03-07T14:25:46.972Z,96820.84
2023-03-07T14:28:28.652Z,96821.72
2023-03-07T14:31:01.097Z,96813.56
2023-03-07T14:33:36.145Z,96815.47
2023-03-07T14:36:16.346Z,96819.34
2023-03-07T14:38:45.251Z,96804.59
2023-03-07T14:41:36.617Z,96809.19
2023-03-07T14:44:24.322Z,96807.31
2023-03-07T14:47:12.301Z,96807.94
2023-03-07T14:50:23.420Z,96809.22
2023-03-07T14:52:55.936Z,96797.47
2023-03-07T14:55:25.433Z,96810.75
2023-03-07T14:57:54.773Z,96814.81
2023-03-07T15:00:24.527Z,96818.81
2023-03-07T15:02:57.877Z,96803.69
2023-03-07T15:05:26.752Z,96815.19
2023-03-07T15:07:54.904Z,96815.16
2023-03-07T15:10:33.912Z,96806.59
2023-03-07T15:13:05.272Z,96819.69
2023-03-07T15:15:47.500Z,96808.47
2023-03-07T15:18:30.951Z,96803.47
2023-03-07T15:20:59.300Z,96804.13
2023-03-07T15:23:29.096Z,96805.09
2023-03-07T15:26:02.088Z,96793.44
2023-03-07T15:28:33.010Z,96795.91
2023-03-07T15:31:00.436Z,96802.69
2023-03-07T15:33:30.764Z,96798.75
2023-03-07T15:36:12.910Z,96797.69
2023-03-07T15:38:46.373Z,96802.13
2023-03-07T15:41:37.167Z,96804.25
2023-03-07T15:44:13.205Z,96807.91
2023-03-07T15:47:13.746Z,96819.16
2023-03-07T15:49:49.918Z,96812.56
2023-03-07T15:52:26.848Z,96815.78
2023-03-07T15:54:56.021Z,96811.72
2023-03-07T15:57:35.888Z,96804.53
2023-03-07T16:00:07.522Z,96820.38
2023-03-07T16:02:39.700Z,96808.31
2023-03-07T16:05:24.801Z,96804.03
2023-03-07T16:07:56.430Z,96801.06
2023-03-07T16:10:31.615Z,96802.75
2023-03-07T16:13:00.584Z,96803.66
2023-03-07T16:15:27.476Z,96797.56
2023-03-07T16:17:56.463Z,96811.03
2023-03-07T16:20:28.409Z,96805.59
2023-03-07T16:22:55.435Z,96806.00
2023-03-07T16:25:24.208Z,96805.66
2023-03-07T16:27:54.507Z,96807.66
2023-03-07T16:30:23.526Z,96818.22
2023-03-07T16:32:50.571Z,96817.44
2023-03-07T16:35:20.323Z,96810.75
2023-03-07T16:37:47.295Z,96824.00
2023-03-07T16:40:15.238Z,96817.63
2023-03-07T16:42:44.513Z,96824.41
2023-03-07T16:45:26.783Z,96820.72
2023-03-07T16:47:55.789Z,96819.31
2023-03-07T16:50:26.301Z,96828.56
2023-03-07T16:52:53.131Z,96838.38
2023-03-07T16:55:20.544Z,96831.81
2023-03-07T16:57:50.295Z,96822.47
2023-03-07T17:00:20.037Z,96828.56
2023-03-07T17:02:48.164Z,96830.41
2023-03-07T17:05:21.088Z,96824.28
2023-03-07T17:07:47.856Z,96830.13
2023-03-07T17:10:14.848Z,96834.78
2023-03-07T17:12:42.441Z,96840.25
2023-03-07T17:15:14.926Z,96839.91
2023-03-07T17:17:42.274Z,96841.47
2023-03-07T17:20:13.745Z,96842.69
2023-03-07T17:22:40.550Z,96849.00
2023-03-07T17:25:08.375Z,96848.50
2023-03-07T17:27:38.895Z,96842.03
2023-03-07T17:30:05.939Z,96845.81
2023-03-07T17:32:32.587Z,96850.03
2023-03-07T17:34:59.357Z,96855.34
2023-03-07T17:37:25.957Z,96858.59
2023-03-07T17:39:52.757Z,96852.16
2023-03-07T17:42:20.187Z,96855.25
2023-03-07T17:44:46.867Z,96855.91
2023-03-07T17:47:13.530Z,96868.00
2023-03-07T17:49:40.255Z,96863.97
2023-03-07T17:52:07.665Z,96871.75
2023-03-07T17:54:34.690Z,96881.13
2023-03-07T17:57:02.179Z,96878.53
2023-03-07T17:59:31.065Z,96887.22
2023-03-07T18:01:57.992Z,96888.16
2023-03-07T18:04:24.872Z,96890.84
2023-03-07T18:06:51.590Z,96891.88
2023-03-07T18:09:18.731Z,96888.59
2023-03-07T18:11:45.524Z,96895.09
2023-03-07T18:14:12.604Z,96893.19
2023-03-07T18:16:39.434Z,96892.31
2023-03-07T18:19:08.320Z,96896.88
2023-03-07T18:21:38.766Z,96903.78
2023-03-07T18:24:20.166Z,96902.81
2023-03-07T18:26:49.550Z,96906.38
2023-03-07T18:29:16.647Z,96901.81
2023-03-07T18:31:43.423Z,96911.03
2023-03-07T18:34:10.600Z,96911.97
2023-03-07T18:36:37.542Z,96911.91
2023-03-07T18:39:04.425Z,96913.28
2023-03-07T18:41:31.332Z,96905.97
2023-03-07T18:43:58.413Z,96905.59
2023-03-07T18:46:30.845Z,96905.81
2023-03-07T18:48:59.189Z,96904.53
2023-03-07T18:51:26.861Z,96899.41
2023-03-07T18:53:55.225Z,96904.88
2023-03-07T18:56:21.993Z,96900.34
2023-03-07T18:58:49.231Z,96906.19
2023-03-07T19:01:21.260Z,96892.66
2023-03-07T19:03:49.999Z,96896.09
2023-03-07T19:06:19.520Z,96894.75
2023-03-07T19:08:46.854Z,96907.69
2023-03-07T19:11:14.611Z,96915.50
2023-03-07T19:13:42.622Z,96922.41
2023-03-07T19:16:13.606Z,96926.94
2023-03-07T19:18:40.520Z,96937.31
2023-03-07T19:21:10.104Z,96927.09
2023-03-07T19:23:37.391Z,96932.03
2023-03-07T19:26:06.261Z,96928.44
2023-03-07T19:28:34.260Z,96933.81
2023-03-07T19:31:08.979Z,96927.34
2023-03-07T19:33:36.253Z,96929.47
2023-03-07T19:36:04.960Z,96929.00
2023-03-07T19:38:31.701Z,96926.97
2023-03-07T19:40:59.178Z,96933.78
2023-03-07T19:43:29.329Z,96951.59
2023-03-07T19:45:56.192Z,96948.88
2023-03-07T19:48:23.759Z,96952.47
2023-03-07T19:50:51.474Z,96949.75
2023-03-07T19:53:19.097Z,96954.03
2023-03-07T19:55:46.228Z,96940.56
2023-03-07T19:58:12.912Z,96958.13
2023-03-07T20:00:42.158Z,96961.06
2023-03-07T20:03:14.871Z,96957.84
2023-03-07T20:05:46.388Z,96961.72
2023-03-07T20:08:13.055Z,96956.63
2023-03-07T20:10:40.036Z,96944.16
2023-03-07T20:13:07.900Z,96955.75
2023-03-07T20:15:36.055Z,96947.97
2023-03-07T20:18:05.701Z,96957.53
2023-03-07T20:20:35.441Z,96952.47
2023-03-07T20:23:02.224Z,96962.03
2023-03-07T20:25:30.726Z,96968.25
2023-03-07T20:27:57.885Z,96965.22
2023-03-07T20:30:24.609Z,96956.63
2023-03-07T20:32:51.268Z,96956.38
2023-03-07T20:35:18.011Z,96958.19
2023-03-07T20:37:44.713Z,96968.47
2023-03-07T20:40:12.058Z,96959.94
2023-03-07T20:42:38.730Z,96971.63
2023-03-07T20:45:05.989Z,96970.19
2023-03-07T20:47:36.221Z,96975.88
2023-03-07T20:50:03.597Z,96968.34
2023-03-07T20:52:30.431Z,96971.84
2023-03-07T20:54:57.067Z,96976.28
2023-03-07T20:57:23.828Z,96987.28
2023-03-07T20:59:50.405Z,96982.81
2023-03-07T21:02:17.088Z,96981.09
2023-03-07T21:04:43.667Z,96979.69
2023-03-07T21:07:10.277Z,96979.00
2023-03-07T21:09:36.890Z,96985.56
2023-03-07T21:12:04.312Z,96992.44
2023-03-07T21:14:30.989Z,96998.50
2023-03-07T21:16:57.734Z,96995.69
2023-03-07T21:19:24.543Z,97006.53
2023-03-07T21:21:51.234Z,97001.34
2023-03-07T21:24:17.896Z,97006.16
2023-03-07T21:26:44.600Z,97000.28
2023-03-07T21:29:13.257Z,97005.06
2023-03-07T21:31:39.902Z,97009.34
2023-03-07T21:34:08.538Z,96998.44
2023-03-07T21:36:35.429Z,97019.47
2023-03-07T21:39:05.228Z,96993.72
2023-03-07T21:41:31.854Z,97005.56
2023-03-07T21:43:59.066Z,96999.53
2023-03-07T21:46:26.298Z,97002.91
2023-03-07T21:48:53.712Z,97006.13
2023-03-07T21:51:21.111Z,97010.81
2023-03-07T21:53:47.918Z,97014.31
2023-03-07T21:56:17.148Z,97021.28
2023-03-07T21:58:47.551Z,97022.72
2023-03-07T22:01:17.375Z,97018.28
2023-03-07T22:03:44.127Z,97023.81
2023-03-07T22:06:13.625Z,97010.59
2023-03-07T22:08:41.267Z,97016.16
2023-03-07T22:11:09.465Z,97023.00
2023-03-07T22:13:37.247Z,97020.38
2023-03-07T22:16:07.430Z,97014.00
2023-03-07T22:18:35.217Z,97026.38
2023-03-07T22:21:17.890Z,97017.94
2023-03-07T22:23:44.652Z,97009.63
2023-03-07T22:26:11.884Z,97006.50
2023-03-07T22:28:40.509Z,97009.19
2023-03-07T22:31:10.727Z,96997.56
2023-03-07T22:33:39.046Z,96991.81
2023-03-07T22:36:07.273Z,96994.38
2023-03-07T22:38:34.440Z,96997.84
2023-03-07T22:41:19.369Z,97005.69
2023-03-07T22:43:46.040Z,97004.16
2023-03-07T22:46:13.213Z,97004.41
2023-03-07T22:48:40.698Z,97008.66
2023-03-07T22:51:13.578Z,97013.91
2023-03-07T22:53:40.769Z,97003.31
2023-03-07T22:56:14.251Z,97005.13
2023-03-07T22:58:40.916Z,97021.59
2023-03-07T23:01:13.064Z,97009.25
2023-03-07T23:03:40.067Z,97006.13
2023-03-07T23:06:07.397Z,97017.22
2023-03-07T23:08:34.234Z,97009.13
2023-03-07T23:11:09.149Z,97011.22
2023-03-07T23:13:36.369Z,97008.66
2023-03-07T23:16:05.287Z,97009.53
2023-03-07T23:18:32.040Z,97011.47
2023-03-07T23:20:58.777Z,97012.09
2023-03-07T23:23:25.726Z,96997.69
2023-03-07T23:25:52.566Z,96998.00
2023-03-07T23:28:19.225Z,96995.34
2023-03-07T23:30:46.055Z,97001.25
2023-03-07T23:33:12.741Z,97006.75
2023-03-07T23:35:39.788Z,96993.44
2023-03-07T23:38:06.453Z,96995.69
2023-03-07T23:40:36.008Z,97004.28
2023-03-07T23:43:03.850Z,97004.94
2023-03-07T23:45:30.918Z,97004.78
2023-03-07T23:47:57.718Z,97010.84
2023-03-07T23:50:24.477Z,97001.22
2023-03-07T23:52:51.384Z,97008.59
2023-03-07T23:55:18.064Z,96994.31
2023-03-07T23:57:46.908Z,96992.59
